VIE weather

Vienna International Airport
Vienna, Vienna, Austria

Public forecast

Using degrees Celsius for public forecast. Weather courtesy of forecast.io.

METAR (pilot weather report)

Retrieved 2019/04/21 12:20 UTC (0 seconds ago):

LOWW 211220Z 36007KT 270V050 CAVOK 20/02 Q1021 NOSIG

TAF (pilot weather forecast)

Retrieved 2019/04/21 12:21 UTC (0 seconds ago):

TAF LOWW 211115Z 2112/2218 02007KT CAVOK TX23/2114Z TN06/2204Z BECMG 2117/2119 VRB02KT BECMG 2207/2209 07008KT BECMG 2211/2213 11012KT